sensor_id;sensor_type;location;lat;lon;timestamp;temperature;humidity
15203;DHT22;7702;51.046;5.184;2022-11-15T00:01:38;10.00;99.90
15203;DHT22;7702;51.046;5.184;2022-11-15T00:04:04;10.00;99.90
15203;DHT22;7702;51.046;5.184;2022-11-15T00:06:31;10.10;99.90
15203;DHT22;7702;51.046;5.184;2022-11-15T00:09:00;10.00;99.90
15203;DHT22;7702;51.046;5.184;2022-11-15T00:11:26;10.10;99.90
15203;DHT22;7702;51.046;5.184;2022-11-15T00:13:55;10.10;99.90
15203;DHT22;7702;51.046;5.184;2022-11-15T00:16:21;10.10;99.90
15203;DHT22;7702;51.046;5.184;2022-11-15T00:18:47;10.20;99.90
15203;DHT22;7702;51.046;5.184;2022-11-15T00:21:13;10.20;99.90
15203;DHT22;7702;51.046;5.184;2022-11-15T00:23:39;10.30;99.90
15203;DHT22;7702;51.046;5.184;2022-11-15T00:26:05;10.30;99.90
15203;DHT22;7702;51.046;5.184;2022-11-15T00:28:31;10.30;99.90
15203;DHT22;7702;51.046;5.184;2022-11-15T00:31:01;10.30;99.90
15203;DHT22;7702;51.046;5.184;2022-11-15T00:33:27;10.40;99.90
15203;DHT22;7702;51.046;5.184;2022-11-15T00:35:53;10.30;99.90
15203;DHT22;7702;51.046;5.184;2022-11-15T00:38:18;10.40;99.90
15203;DHT22;7702;51.046;5.184;2022-11-15T00:40:44;10.40;99.90
15203;DHT22;7702;51.046;5.184;2022-11-15T00:43:10;10.50;99.90
15203;DHT22;7702;51.046;5.184;2022-11-15T00:45:36;10.60;99.90
15203;DHT22;7702;51.046;5.184;2022-11-15T00:48:02;10.60;99.90
15203;DHT22;7702;51.046;5.184;2022-11-15T00:50:27;10.60;99.90
15203;DHT22;7702;51.046;5.184;2022-11-15T00:52:53;10.70;99.90
15203;DHT22;7702;51.046;5.184;2022-11-15T00:55:19;10.70;99.90
15203;DHT22;7702;51.046;5.184;2022-11-15T00:57:46;10.70;99.90
15203;DHT22;7702;51.046;5.184;2022-11-15T01:00:12;10.80;99.90
15203;DHT22;7702;51.046;5.184;2022-11-15T01:02:38;10.80;99.90
15203;DHT22;7702;51.046;5.184;2022-11-15T01:05:04;10.80;99.90
15203;DHT22;7702;51.046;5.184;2022-11-15T01:07:30;10.90;99.90
15203;DHT22;7702;51.046;5.184;2022-11-15T01:09:55;10.90;99.90
15203;DHT22;7702;51.046;5.184;2022-11-15T01:12:21;10.80;99.90
15203;DHT22;7702;51.046;5.184;2022-11-15T01:14:47;10.90;99.90
15203;DHT22;7702;51.046;5.184;2022-11-15T01:17:12;10.90;99.90
15203;DHT22;7702;51.046;5.184;2022-11-15T01:19:38;11.00;99.90
15203;DHT22;7702;51.046;5.184;2022-11-15T01:22:03;11.00;99.90
15203;DHT22;7702;51.046;5.184;2022-11-15T01:24:29;11.10;99.90
15203;DHT22;7702;51.046;5.184;2022-11-15T01:26:56;11.10;99.90
15203;DHT22;7702;51.046;5.184;2022-11-15T01:29:21;11.20;99.90
15203;DHT22;7702;51.046;5.184;2022-11-15T01:31:47;11.20;99.90
15203;DHT22;7702;51.046;5.184;2022-11-15T01:34:13;11.20;99.90
15203;DHT22;7702;51.046;5.184;2022-11-15T01:36:40;11.20;99.90
15203;DHT22;7702;51.046;5.184;2022-11-15T01:39:06;11.20;99.90
15203;DHT22;7702;51.046;5.184;2022-11-15T01:41:33;11.30;99.90
15203;DHT22;7702;51.046;5.184;2022-11-15T01:47:04;11.30;99.90
15203;DHT22;7702;51.046;5.184;2022-11-15T01:49:35;11.30;99.90
15203;DHT22;7702;51.046;5.184;2022-11-15T01:52:05;11.30;99.90
15203;DHT22;7702;51.046;5.184;2022-11-15T01:54:32;11.40;99.90
15203;DHT22;7702;51.046;5.184;2022-11-15T01:57:08;11.50;99.90
15203;DHT22;7702;51.046;5.184;2022-11-15T01:59:36;11.50;99.90
15203;DHT22;7702;51.046;5.184;2022-11-15T02:02:02;11.50;99.90
15203;DHT22;7702;51.046;5.184;2022-11-15T02:04:31;11.50;99.90
15203;DHT22;7702;51.046;5.184;2022-11-15T02:06:59;11.50;99.90
15203;DHT22;7702;51.046;5.184;2022-11-15T02:09:25;11.50;99.90
15203;DHT22;7702;51.046;5.184;2022-11-15T02:11:51;11.60;99.90
15203;DHT22;7702;51.046;5.184;2022-11-15T02:14:19;11.50;99.90
15203;DHT22;7702;51.046;5.184;2022-11-15T02:35:42;11.60;99.90
15203;DHT22;7702;51.046;5.184;2022-11-15T02:41:04;11.60;99.90
15203;DHT22;7702;51.046;5.184;2022-11-15T02:43:51;11.70;99.90
15203;DHT22;7702;51.046;5.184;2022-11-15T02:49:14;11.80;99.90
15203;DHT22;7702;51.046;5.184;2022-11-15T02:51:40;11.70;99.90
15203;DHT22;7702;51.046;5.184;2022-11-15T02:54:13;11.80;99.90
15203;DHT22;7702;51.046;5.184;2022-11-15T02:56:39;11.70;99.90
15203;DHT22;7702;51.046;5.184;2022-11-15T03:04:44;11.80;99.90
15203;DHT22;7702;51.046;5.184;2022-11-15T03:07:18;11.80;99.90
15203;DHT22;7702;51.046;5.184;2022-11-15T03:10:02;11.80;99.90
15203;DHT22;7702;51.046;5.184;2022-11-15T03:15:30;11.80;99.90
15203;DHT22;7702;51.046;5.184;2022-11-15T03:18:12;11.80;99.90
15203;DHT22;7702;51.046;5.184;2022-11-15T03:20:42;11.70;99.90
15203;DHT22;7702;51.046;5.184;2022-11-15T03:23:10;11.80;99.90
15203;DHT22;7702;51.046;5.184;2022-11-15T03:25:41;11.80;99.90
15203;DHT22;7702;51.046;5.184;2022-11-15T03:28:13;11.80;99.90
15203;DHT22;7702;51.046;5.184;2022-11-15T03:30:41;11.80;99.90
15203;DHT22;7702;51.046;5.184;2022-11-15T03:33:08;11.80;99.90
15203;DHT22;7702;51.046;5.184;2022-11-15T03:35:37;11.80;99.90
15203;DHT22;7702;51.046;5.184;2022-11-15T03:40:45;11.70;99.90
15203;DHT22;7702;51.046;5.184;2022-11-15T03:43:36;11.80;99.90
15203;DHT22;7702;51.046;5.184;2022-11-15T03:46:13;11.70;99.90
15203;DHT22;7702;51.046;5.184;2022-11-15T03:48:43;11.70;99.90
15203;DHT22;7702;51.046;5.184;2022-11-15T03:51:12;11.70;99.90
15203;DHT22;7702;51.046;5.184;2022-11-15T03:53:38;11.70;99.90
15203;DHT22;7702;51.046;5.184;2022-11-15T03:56:06;11.70;99.90
15203;DHT22;7702;51.046;5.184;2022-11-15T03:58:31;11.70;99.90
15203;DHT22;7702;51.046;5.184;2022-11-15T04:00:57;11.80;99.90
15203;DHT22;7702;51.046;5.184;2022-11-15T04:03:25;11.70;99.90
15203;DHT22;7702;51.046;5.184;2022-11-15T04:05:51;11.70;99.90
15203;DHT22;7702;51.046;5.184;2022-11-15T04:08:17;11.70;99.90
15203;DHT22;7702;51.046;5.184;2022-11-15T04:10:43;11.70;99.90
15203;DHT22;7702;51.046;5.184;2022-11-15T04:13:08;11.70;99.90
15203;DHT22;7702;51.046;5.184;2022-11-15T04:15:34;11.70;99.90
15203;DHT22;7702;51.046;5.184;2022-11-15T04:18:00;11.70;99.90
15203;DHT22;7702;51.046;5.184;2022-11-15T04:20:29;11.70;99.90
15203;DHT22;7702;51.046;5.184;2022-11-15T04:23:18;11.70;99.90
15203;DHT22;7702;51.046;5.184;2022-11-15T04:26:05;11.70;99.90
15203;DHT22;7702;51.046;5.184;2022-11-15T04:28:31;11.70;99.90
15203;DHT22;7702;51.046;5.184;2022-11-15T04:30:57;11.70;99.90
15203;DHT22;7702;51.046;5.184;2022-11-15T04:33:22;11.70;99.90
15203;DHT22;7702;51.046;5.184;2022-11-15T04:35:49;11.70;99.90
15203;DHT22;7702;51.046;5.184;2022-11-15T04:38:34;11.80;99.90
15203;DHT22;7702;51.046;5.184;2022-11-15T04:41:00;11.70;99.90
15203;DHT22;7702;51.046;5.184;2022-11-15T04:43:26;11.60;99.90
15203;DHT22;7702;51.046;5.184;2022-11-15T04:45:52;11.70;99.90
15203;DHT22;7702;51.046;5.184;2022-11-15T04:48:18;11.60;99.90
15203;DHT22;7702;51.046;5.184;2022-11-15T04:50:43;11.70;99.90
15203;DHT22;7702;51.046;5.184;2022-11-15T04:53:09;11.70;99.90
15203;DHT22;7702;51.046;5.184;2022-11-15T04:55:34;11.70;99.90
15203;DHT22;7702;51.046;5.184;2022-11-15T04:58:01;11.70;99.90
15203;DHT22;7702;51.046;5.184;2022-11-15T05:00:28;11.60;99.90
15203;DHT22;7702;51.046;5.184;2022-11-15T05:02:54;11.60;99.90
15203;DHT22;7702;51.046;5.184;2022-11-15T05:05:38;11.40;99.90
15203;DHT22;7702;51.046;5.184;2022-11-15T05:08:04;11.40;99.90
15203;DHT22;7702;51.046;5.184;2022-11-15T05:10:30;11.40;99.90
15203;DHT22;7702;51.046;5.184;2022-11-15T05:12:55;11.40;99.90
15203;DHT22;7702;51.046;5.184;2022-11-15T05:15:21;11.30;99.90
15203;DHT22;7702;51.046;5.184;2022-11-15T05:17:47;11.30;99.90
15203;DHT22;7702;51.046;5.184;2022-11-15T05:20:13;11.30;99.90
15203;DHT22;7702;51.046;5.184;2022-11-15T05:22:39;11.30;99.90
15203;DHT22;7702;51.046;5.184;2022-11-15T05:25:06;11.30;99.90
15203;DHT22;7702;51.046;5.184;2022-11-15T05:27:33;11.30;99.90
15203;DHT22;7702;51.046;5.184;2022-11-15T05:29:59;11.30;99.90
15203;DHT22;7702;51.046;5.184;2022-11-15T05:32:25;11.30;99.90
15203;DHT22;7702;51.046;5.184;2022-11-15T05:34:51;11.30;99.90
15203;DHT22;7702;51.046;5.184;2022-11-15T05:37:17;11.30;99.90
15203;DHT22;7702;51.046;5.184;2022-11-15T05:39:43;11.30;99.90
15203;DHT22;7702;51.046;5.184;2022-11-15T05:42:11;11.20;99.90
15203;DHT22;7702;51.046;5.184;2022-11-15T05:44:41;11.20;99.90
15203;DHT22;7702;51.046;5.184;2022-11-15T05:47:10;11.20;99.90
15203;DHT22;7702;51.046;5.184;2022-11-15T05:49:39;11.20;99.90
15203;DHT22;7702;51.046;5.184;2022-11-15T05:52:09;11.20;99.90
15203;DHT22;7702;51.046;5.184;2022-11-15T05:54:37;11.20;99.90
15203;DHT22;7702;51.046;5.184;2022-11-15T05:57:05;11.10;99.90
15203;DHT22;7702;51.046;5.184;2022-11-15T05:59:31;11.10;99.90
15203;DHT22;7702;51.046;5.184;2022-11-15T06:01:57;11.00;99.90
15203;DHT22;7702;51.046;5.184;2022-11-15T06:04:23;11.00;99.90
15203;DHT22;7702;51.046;5.184;2022-11-15T06:06:50;11.00;99.90
15203;DHT22;7702;51.046;5.184;2022-11-15T06:09:16;10.90;99.90
15203;DHT22;7702;51.046;5.184;2022-11-15T06:11:41;10.90;99.90
15203;DHT22;7702;51.046;5.184;2022-11-15T06:14:07;10.90;99.90
15203;DHT22;7702;51.046;5.184;2022-11-15T06:16:33;10.90;99.90
15203;DHT22;7702;51.046;5.184;2022-11-15T06:18:58;10.90;99.90
15203;DHT22;7702;51.046;5.184;2022-11-15T06:21:24;10.90;99.90
15203;DHT22;7702;51.046;5.184;2022-11-15T06:23:50;10.90;99.90
15203;DHT22;7702;51.046;5.184;2022-11-15T06:26:15;10.90;99.90
15203;DHT22;7702;51.046;5.184;2022-11-15T06:28:41;10.90;99.90
15203;DHT22;7702;51.046;5.184;2022-11-15T06:31:10;10.90;99.90
15203;DHT22;7702;51.046;5.184;2022-11-15T06:33:39;10.90;99.90
15203;DHT22;7702;51.046;5.184;2022-11-15T06:36:08;10.80;99.90
15203;DHT22;7702;51.046;5.184;2022-11-15T06:38:34;10.90;99.90
15203;DHT22;7702;51.046;5.184;2022-11-15T06:41:05;10.80;99.90
15203;DHT22;7702;51.046;5.184;2022-11-15T06:43:31;10.80;99.90
15203;DHT22;7702;51.046;5.184;2022-11-15T06:46:02;10.70;99.90
15203;DHT22;7702;51.046;5.184;2022-11-15T06:48:28;10.70;99.90
15203;DHT22;7702;51.046;5.184;2022-11-15T06:50:56;10.70;99.90
15203;DHT22;7702;51.046;5.184;2022-11-15T06:53:23;10.70;99.90
15203;DHT22;7702;51.046;5.184;2022-11-15T06:55:49;10.70;99.90
15203;DHT22;7702;51.046;5.184;2022-11-15T06:58:15;10.70;99.90
15203;DHT22;7702;51.046;5.184;2022-11-15T07:00:41;10.70;99.90
15203;DHT22;7702;51.046;5.184;2022-11-15T07:03:07;10.70;99.90
15203;DHT22;7702;51.046;5.184;2022-11-15T07:05:33;10.60;99.90
15203;DHT22;7702;51.046;5.184;2022-11-15T07:07:59;10.50;99.90
15203;DHT22;7702;51.046;5.184;2022-11-15T07:10:26;10.50;99.90
15203;DHT22;7702;51.046;5.184;2022-11-15T07:12:53;10.40;99.90
15203;DHT22;7702;51.046;5.184;2022-11-15T07:15:21;10.40;99.90
15203;DHT22;7702;51.046;5.184;2022-11-15T07:17:47;10.20;99.90
15203;DHT22;7702;51.046;5.184;2022-11-15T07:20:13;10.30;99.90
15203;DHT22;7702;51.046;5.184;2022-11-15T07:22:40;10.20;99.90
15203;DHT22;7702;51.046;5.184;2022-11-15T07:25:06;10.20;99.90
15203;DHT22;7702;51.046;5.184;2022-11-15T07:27:32;10.20;99.90
15203;DHT22;7702;51.046;5.184;2022-11-15T07:29:58;10.10;99.90
15203;DHT22;7702;51.046;5.184;2022-11-15T07:32:24;10.20;99.90
15203;DHT22;7702;51.046;5.184;2022-11-15T07:34:49;10.10;99.90
15203;DHT22;7702;51.046;5.184;2022-11-15T07:37:15;10.10;99.90
15203;DHT22;7702;51.046;5.184;2022-11-15T07:39:42;10.10;99.90
15203;DHT22;7702;51.046;5.184;2022-11-15T07:42:08;10.10;99.90
15203;DHT22;7702;51.046;5.184;2022-11-15T07:44:52;10.10;99.90
15203;DHT22;7702;51.046;5.184;2022-11-15T07:47:17;10.10;99.90
15203;DHT22;7702;51.046;5.184;2022-11-15T07:49:43;10.10;99.90
15203;DHT22;7702;51.046;5.184;2022-11-15T07:52:09;10.10;99.90
15203;DHT22;7702;51.046;5.184;2022-11-15T07:54:34;10.10;99.90
15203;DHT22;7702;51.046;5.184;2022-11-15T07:57:00;10.10;99.90
15203;DHT22;7702;51.046;5.184;2022-11-15T07:59:26;10.00;99.90
15203;DHT22;7702;51.046;5.184;2022-11-15T08:01:51;10.00;99.90
15203;DHT22;7702;51.046;5.184;2022-11-15T08:04:17;10.00;99.90
15203;DHT22;7702;51.046;5.184;2022-11-15T08:06:43;10.10;99.90
15203;DHT22;7702;51.046;5.184;2022-11-15T08:09:08;10.10;99.90
15203;DHT22;7702;51.046;5.184;2022-11-15T08:11:34;10.10;99.90
15203;DHT22;7702;51.046;5.184;2022-11-15T08:14:00;10.10;99.90
15203;DHT22;7702;51.046;5.184;2022-11-15T08:16:25;10.10;99.90
15203;DHT22;7702;51.046;5.184;2022-11-15T08:18:51;10.10;99.90
15203;DHT22;7702;51.046;5.184;2022-11-15T08:21:19;10.10;99.90
15203;DHT22;7702;51.046;5.184;2022-11-15T08:23:45;10.10;99.90
15203;DHT22;7702;51.046;5.184;2022-11-15T08:26:11;10.20;99.90
15203;DHT22;7702;51.046;5.184;2022-11-15T08:28:37;10.20;99.90
15203;DHT22;7702;51.046;5.184;2022-11-15T08:31:03;10.30;99.90
15203;DHT22;7702;51.046;5.184;2022-11-15T08:33:29;10.30;99.90
15203;DHT22;7702;51.046;5.184;2022-11-15T08:36:00;10.30;99.90
15203;DHT22;7702;51.046;5.184;2022-11-15T08:38:26;10.30;99.90
15203;DHT22;7702;51.046;5.184;2022-11-15T08:40:58;10.30;99.90
15203;DHT22;7702;51.046;5.184;2022-11-15T08:43:25;10.40;99.90
15203;DHT22;7702;51.046;5.184;2022-11-15T08:45:51;10.40;99.90
15203;DHT22;7702;51.046;5.184;2022-11-15T08:48:17;10.40;99.90
15203;DHT22;7702;51.046;5.184;2022-11-15T08:50:42;10.50;99.90
15203;DHT22;7702;51.046;5.184;2022-11-15T08:53:09;10.50;99.90
15203;DHT22;7702;51.046;5.184;2022-11-15T08:55:39;10.50;99.90
15203;DHT22;7702;51.046;5.184;2022-11-15T08:58:05;10.60;99.90
15203;DHT22;7702;51.046;5.184;2022-11-15T09:00:30;10.60;99.90
15203;DHT22;7702;51.046;5.184;2022-11-15T09:02:56;10.60;99.90
15203;DHT22;7702;51.046;5.184;2022-11-15T09:05:22;10.70;99.90
15203;DHT22;7702;51.046;5.184;2022-11-15T09:07:53;10.70;99.90
15203;DHT22;7702;51.046;5.184;2022-11-15T09:10:19;10.70;99.90
15203;DHT22;7702;51.046;5.184;2022-11-15T09:12:45;10.70;99.90
15203;DHT22;7702;51.046;5.184;2022-11-15T09:15:14;10.80;99.90
15203;DHT22;7702;51.046;5.184;2022-11-15T09:17:40;10.80;99.90
15203;DHT22;7702;51.046;5.184;2022-11-15T09:20:07;10.90;99.90
15203;DHT22;7702;51.046;5.184;2022-11-15T09:22:32;11.00;99.90
15203;DHT22;7702;51.046;5.184;2022-11-15T09:24:58;11.00;99.90
15203;DHT22;7702;51.046;5.184;2022-11-15T09:27:28;11.10;99.90
15203;DHT22;7702;51.046;5.184;2022-11-15T09:29:54;11.00;99.90
15203;DHT22;7702;51.046;5.184;2022-11-15T09:32:20;11.00;99.90
15203;DHT22;7702;51.046;5.184;2022-11-15T09:34:47;11.10;99.90
15203;DHT22;7702;51.046;5.184;2022-11-15T09:37:13;11.10;99.90
15203;DHT22;7702;51.046;5.184;2022-11-15T09:39:38;11.20;99.90
15203;DHT22;7702;51.046;5.184;2022-11-15T09:47:47;11.60;99.90
15203;DHT22;7702;51.046;5.184;2022-11-15T09:50:17;11.80;99.90
15203;DHT22;7702;51.046;5.184;2022-11-15T09:52:48;11.90;99.90
15203;DHT22;7702;51.046;5.184;2022-11-15T09:55:15;11.90;99.90
15203;DHT22;7702;51.046;5.184;2022-11-15T09:58:15;11.80;99.90
15203;DHT22;7702;51.046;5.184;2022-11-15T10:00:47;11.70;99.90
15203;DHT22;7702;51.046;5.184;2022-11-15T10:03:17;11.70;99.90
15203;DHT22;7702;51.046;5.184;2022-11-15T10:05:47;11.90;99.90
15203;DHT22;7702;51.046;5.184;2022-11-15T10:11:00;12.40;99.90
15203;DHT22;7702;51.046;5.184;2022-11-15T10:13:31;12.50;99.90
15203;DHT22;7702;51.046;5.184;2022-11-15T10:19:16;12.80;99.90
15203;DHT22;7702;51.046;5.184;2022-11-15T10:24:12;13.00;99.90
15203;DHT22;7702;51.046;5.184;2022-11-15T10:26:46;13.10;99.90
15203;DHT22;7702;51.046;5.184;2022-11-15T10:29:18;13.20;99.90
15203;DHT22;7702;51.046;5.184;2022-11-15T10:31:44;13.20;99.90
15203;DHT22;7702;51.046;5.184;2022-11-15T10:34:18;13.20;99.90
15203;DHT22;7702;51.046;5.184;2022-11-15T10:36:56;13.20;99.90
15203;DHT22;7702;51.046;5.184;2022-11-15T10:39:22;13.10;99.90
15203;DHT22;7702;51.046;5.184;2022-11-15T10:41:47;12.80;99.90
15203;DHT22;7702;51.046;5.184;2022-11-15T10:47:04;12.80;99.90
15203;DHT22;7702;51.046;5.184;2022-11-15T10:49:31;12.70;99.90
15203;DHT22;7702;51.046;5.184;2022-11-15T10:52:19;12.60;99.90
15203;DHT22;7702;51.046;5.184;2022-11-15T10:54:48;12.60;99.90
15203;DHT22;7702;51.046;5.184;2022-11-15T10:57:17;12.50;99.90
15203;DHT22;7702;51.046;5.184;2022-11-15T10:59:55;12.50;99.90
15203;DHT22;7702;51.046;5.184;2022-11-15T11:04:55;12.70;99.90
15203;DHT22;7702;51.046;5.184;2022-11-15T11:07:23;12.80;99.90
15203;DHT22;7702;51.046;5.184;2022-11-15T11:10:17;12.90;99.90
15203;DHT22;7702;51.046;5.184;2022-11-15T11:12:43;12.80;99.90
15203;DHT22;7702;51.046;5.184;2022-11-15T11:15:12;12.90;99.90
15203;DHT22;7702;51.046;5.184;2022-11-15T11:17:59;13.00;99.90
15203;DHT22;7702;51.046;5.184;2022-11-15T11:20:38;13.00;99.90
15203;DHT22;7702;51.046;5.184;2022-11-15T11:29:13;13.30;99.90
15203;DHT22;7702;51.046;5.184;2022-11-15T11:37:28;13.40;99.90
15203;DHT22;7702;51.046;5.184;2022-11-15T11:48:59;13.10;99.90
15203;DHT22;7702;51.046;5.184;2022-11-15T11:51:27;13.10;99.90
15203;DHT22;7702;51.046;5.184;2022-11-15T11:56:31;13.00;99.90
15203;DHT22;7702;51.046;5.184;2022-11-15T11:59:05;12.90;99.90
15203;DHT22;7702;51.046;5.184;2022-11-15T12:01:37;12.90;99.90
15203;DHT22;7702;51.046;5.184;2022-11-15T12:07:01;13.10;99.90
15203;DHT22;7702;51.046;5.184;2022-11-15T12:12:47;13.20;99.90
15203;DHT22;7702;51.046;5.184;2022-11-15T12:15:15;13.20;99.90
15203;DHT22;7702;51.046;5.184;2022-11-15T12:17:42;13.20;99.90
15203;DHT22;7702;51.046;5.184;2022-11-15T12:20:22;13.20;99.90
15203;DHT22;7702;51.046;5.184;2022-11-15T12:23:10;13.30;99.90
15203;DHT22;7702;51.046;5.184;2022-11-15T12:25:53;13.20;99.90
15203;DHT22;7702;51.046;5.184;2022-11-15T12:31:15;13.40;99.90
15203;DHT22;7702;51.046;5.184;2022-11-15T12:33:44;13.40;99.90
15203;DHT22;7702;51.046;5.184;2022-11-15T12:36:51;13.40;99.90
15203;DHT22;7702;51.046;5.184;2022-11-15T12:39:16;13.30;99.90
15203;DHT22;7702;51.046;5.184;2022-11-15T12:41:44;13.40;99.90
15203;DHT22;7702;51.046;5.184;2022-11-15T12:47:22;13.40;99.90
15203;DHT22;7702;51.046;5.184;2022-11-15T12:49:49;13.60;99.90
15203;DHT22;7702;51.046;5.184;2022-11-15T12:52:15;13.60;99.90
15203;DHT22;7702;51.046;5.184;2022-11-15T13:17:51;13.80;99.90
15203;DHT22;7702;51.046;5.184;2022-11-15T13:20:23;13.90;99.90
15203;DHT22;7702;51.046;5.184;2022-11-15T13:23:11;13.90;99.90
15203;DHT22;7702;51.046;5.184;2022-11-15T13:30:52;13.80;99.90
15203;DHT22;7702;51.046;5.184;2022-11-15T13:33:20;13.70;99.90
15203;DHT22;7702;51.046;5.184;2022-11-15T13:35:48;13.80;99.90
15203;DHT22;7702;51.046;5.184;2022-11-15T13:38:36;13.90;99.90
15203;DHT22;7702;51.046;5.184;2022-11-15T13:41:19;13.80;99.90
15203;DHT22;7702;51.046;5.184;2022-11-15T13:43:46;13.80;99.90
15203;DHT22;7702;51.046;5.184;2022-11-15T13:46:20;13.80;99.90
15203;DHT22;7702;51.046;5.184;2022-11-15T13:54:19;13.90;99.90
15203;DHT22;7702;51.046;5.184;2022-11-15T14:00:05;14.00;99.90
15203;DHT22;7702;51.046;5.184;2022-11-15T14:02:33;14.00;99.90
15203;DHT22;7702;51.046;5.184;2022-11-15T14:05:17;14.00;99.90
15203;DHT22;7702;51.046;5.184;2022-11-15T14:07:55;14.00;99.90
15203;DHT22;7702;51.046;5.184;2022-11-15T14:10:35;14.10;99.90
15203;DHT22;7702;51.046;5.184;2022-11-15T14:13:03;14.10;99.90
15203;DHT22;7702;51.046;5.184;2022-11-15T14:15:35;14.10;99.90
15203;DHT22;7702;51.046;5.184;2022-11-15T14:18:01;14.10;99.90
15203;DHT22;7702;51.046;5.184;2022-11-15T14:20:37;14.00;99.90
15203;DHT22;7702;51.046;5.184;2022-11-15T14:23:25;14.00;99.90
15203;DHT22;7702;51.046;5.184;2022-11-15T14:25:56;14.00;99.90
15203;DHT22;7702;51.046;5.184;2022-11-15T14:30:48;14.00;99.90
15203;DHT22;7702;51.046;5.184;2022-11-15T14:33:22;14.00;99.90
15203;DHT22;7702;51.046;5.184;2022-11-15T14:35:48;13.90;99.90
15203;DHT22;7702;51.046;5.184;2022-11-15T14:38:14;13.90;99.90
15203;DHT22;7702;51.046;5.184;2022-11-15T14:40:40;13.90;99.90
15203;DHT22;7702;51.046;5.184;2022-11-15T14:43:09;13.90;99.90
15203;DHT22;7702;51.046;5.184;2022-11-15T14:45:36;13.90;99.90
15203;DHT22;7702;51.046;5.184;2022-11-15T14:48:02;13.90;99.90
15203;DHT22;7702;51.046;5.184;2022-11-15T14:50:27;13.90;99.90
15203;DHT22;7702;51.046;5.184;2022-11-15T14:52:53;13.90;99.90
15203;DHT22;7702;51.046;5.184;2022-11-15T14:55:28;13.90;99.90
15203;DHT22;7702;51.046;5.184;2022-11-15T14:57:55;13.90;99.90
15203;DHT22;7702;51.046;5.184;2022-11-15T15:00:21;13.90;99.90
15203;DHT22;7702;51.046;5.184;2022-11-15T15:02:48;13.90;99.90
15203;DHT22;7702;51.046;5.184;2022-11-15T15:05:19;13.90;99.90
15203;DHT22;7702;51.046;5.184;2022-11-15T15:07:46;13.90;99.90
15203;DHT22;7702;51.046;5.184;2022-11-15T15:10:12;13.90;99.90
15203;DHT22;7702;51.046;5.184;2022-11-15T15:12:38;13.80;99.90
15203;DHT22;7702;51.046;5.184;2022-11-15T15:15:04;13.80;99.90
15203;DHT22;7702;51.046;5.184;2022-11-15T15:17:30;13.80;99.90
15203;DHT22;7702;51.046;5.184;2022-11-15T15:19:56;13.70;99.90
15203;DHT22;7702;51.046;5.184;2022-11-15T15:22:22;13.70;99.90
15203;DHT22;7702;51.046;5.184;2022-11-15T15:24:51;13.60;99.90
15203;DHT22;7702;51.046;5.184;2022-11-15T15:27:16;13.60;99.90
15203;DHT22;7702;51.046;5.184;2022-11-15T15:29:42;13.40;99.90
15203;DHT22;7702;51.046;5.184;2022-11-15T15:32:09;13.40;99.90
15203;DHT22;7702;51.046;5.184;2022-11-15T15:34:35;13.40;99.90
15203;DHT22;7702;51.046;5.184;2022-11-15T15:37:23;13.30;99.90
15203;DHT22;7702;51.046;5.184;2022-11-15T15:39:53;13.20;99.90
15203;DHT22;7702;51.046;5.184;2022-11-15T15:42:20;13.20;99.90
15203;DHT22;7702;51.046;5.184;2022-11-15T15:44:46;13.10;99.90
15203;DHT22;7702;51.046;5.184;2022-11-15T15:47:20;13.00;99.90
15203;DHT22;7702;51.046;5.184;2022-11-15T15:49:47;13.00;99.90
15203;DHT22;7702;51.046;5.184;2022-11-15T15:52:12;12.90;99.90
15203;DHT22;7702;51.046;5.184;2022-11-15T15:54:39;12.80;99.90
15203;DHT22;7702;51.046;5.184;2022-11-15T15:57:05;12.80;99.90
15203;DHT22;7702;51.046;5.184;2022-11-15T15:59:31;12.70;99.90
15203;DHT22;7702;51.046;5.184;2022-11-15T16:01:57;12.60;99.90
15203;DHT22;7702;51.046;5.184;2022-11-15T16:04:23;12.60;99.90
15203;DHT22;7702;51.046;5.184;2022-11-15T16:06:49;12.50;99.90
15203;DHT22;7702;51.046;5.184;2022-11-15T16:09:18;12.50;99.90
15203;DHT22;7702;51.046;5.184;2022-11-15T16:12:04;12.50;99.90
15203;DHT22;7702;51.046;5.184;2022-11-15T16:14:31;12.40;99.90
15203;DHT22;7702;51.046;5.184;2022-11-15T16:16:57;12.40;99.90
15203;DHT22;7702;51.046;5.184;2022-11-15T16:19:22;12.40;99.90
15203;DHT22;7702;51.046;5.184;2022-11-15T16:21:48;12.40;99.90
15203;DHT22;7702;51.046;5.184;2022-11-15T16:24:14;12.40;99.90
15203;DHT22;7702;51.046;5.184;2022-11-15T16:26:39;12.40;99.90
15203;DHT22;7702;51.046;5.184;2022-11-15T16:29:05;12.40;99.90
15203;DHT22;7702;51.046;5.184;2022-11-15T16:31:32;12.30;99.90
15203;DHT22;7702;51.046;5.184;2022-11-15T16:33:58;12.30;99.90
15203;DHT22;7702;51.046;5.184;2022-11-15T16:36:25;12.30;99.90
15203;DHT22;7702;51.046;5.184;2022-11-15T16:38:51;12.20;99.90
15203;DHT22;7702;51.046;5.184;2022-11-15T16:41:18;12.20;99.90
15203;DHT22;7702;51.046;5.184;2022-11-15T16:43:47;12.20;99.90
15203;DHT22;7702;51.046;5.184;2022-11-15T16:46:16;12.20;99.90
15203;DHT22;7702;51.046;5.184;2022-11-15T16:48:43;12.20;99.90
15203;DHT22;7702;51.046;5.184;2022-11-15T16:51:08;12.10;99.90
15203;DHT22;7702;51.046;5.184;2022-11-15T16:53:35;12.10;99.90
15203;DHT22;7702;51.046;5.184;2022-11-15T16:56:00;12.10;99.90
15203;DHT22;7702;51.046;5.184;2022-11-15T16:58:26;12.10;99.90
15203;DHT22;7702;51.046;5.184;2022-11-15T17:00:53;12.00;99.90
15203;DHT22;7702;51.046;5.184;2022-11-15T17:03:19;12.00;99.90
15203;DHT22;7702;51.046;5.184;2022-11-15T17:05:45;12.00;99.90
15203;DHT22;7702;51.046;5.184;2022-11-15T17:08:11;12.00;99.90
15203;DHT22;7702;51.046;5.184;2022-11-15T17:10:39;12.00;99.90
15203;DHT22;7702;51.046;5.184;2022-11-15T17:13:12;11.90;99.90
15203;DHT22;7702;51.046;5.184;2022-11-15T17:15:38;11.90;99.90
15203;DHT22;7702;51.046;5.184;2022-11-15T17:18:04;11.90;99.90
15203;DHT22;7702;51.046;5.184;2022-11-15T17:20:31;11.90;99.90
15203;DHT22;7702;51.046;5.184;2022-11-15T17:22:57;11.80;99.90
15203;DHT22;7702;51.046;5.184;2022-11-15T17:25:22;11.80;99.90
15203;DHT22;7702;51.046;5.184;2022-11-15T17:27:48;11.80;99.90
15203;DHT22;7702;51.046;5.184;2022-11-15T17:30:14;11.90;99.90
15203;DHT22;7702;51.046;5.184;2022-11-15T17:32:41;11.80;99.90
15203;DHT22;7702;51.046;5.184;2022-11-15T17:35:08;11.80;99.90
15203;DHT22;7702;51.046;5.184;2022-11-15T17:37:34;11.80;99.90
15203;DHT22;7702;51.046;5.184;2022-11-15T17:40:00;11.70;99.90
15203;DHT22;7702;51.046;5.184;2022-11-15T17:42:26;11.80;99.90
15203;DHT22;7702;51.046;5.184;2022-11-15T17:44:52;11.80;99.90
15203;DHT22;7702;51.046;5.184;2022-11-15T17:47:17;11.80;99.90
15203;DHT22;7702;51.046;5.184;2022-11-15T17:49:43;11.80;99.90
15203;DHT22;7702;51.046;5.184;2022-11-15T17:52:09;11.90;99.90
15203;DHT22;7702;51.046;5.184;2022-11-15T17:54:34;11.90;99.90
15203;DHT22;7702;51.046;5.184;2022-11-15T17:57:00;11.90;99.90
15203;DHT22;7702;51.046;5.184;2022-11-15T17:59:26;11.90;99.90
15203;DHT22;7702;51.046;5.184;2022-11-15T18:01:51;11.90;99.90
15203;DHT22;7702;51.046;5.184;2022-11-15T18:04:18;11.90;99.90
15203;DHT22;7702;51.046;5.184;2022-11-15T18:06:45;11.90;99.90